sensor_id;sensor_type;location;lat;lon;timestamp;P1;durP1;ratioP1;P2;durP2;ratioP2
14770;SDS011;7477;45.222;5.688;2022-12-18T00:02:59;23.10;;;13.17;;
14770;SDS011;7477;45.222;5.688;2022-12-18T00:06:18;22.30;;;12.90;;
14770;SDS011;7477;45.222;5.688;2022-12-18T00:09:38;19.80;;;13.10;;
14770;SDS011;7477;45.222;5.688;2022-12-18T00:12:57;18.97;;;11.70;;
14770;SDS011;7477;45.222;5.688;2022-12-18T00:16:18;21.03;;;13.00;;
14770;SDS011;7477;45.222;5.688;2022-12-18T00:19:39;19.87;;;12.27;;
14770;SDS011;7477;45.222;5.688;2022-12-18T00:22:58;19.80;;;11.47;;
14770;SDS011;7477;45.222;5.688;2022-12-18T00:26:21;19.90;;;12.43;;
14770;SDS011;7477;45.222;5.688;2022-12-18T00:29:43;18.73;;;11.07;;
14770;SDS011;7477;45.222;5.688;2022-12-18T00:33:02;17.97;;;10.77;;
14770;SDS011;7477;45.222;5.688;2022-12-18T00:36:23;15.80;;;11.20;;
14770;SDS011;7477;45.222;5.688;2022-12-18T00:39:48;16.63;;;10.80;;
14770;SDS011;7477;45.222;5.688;2022-12-18T00:43:09;17.53;;;10.47;;
14770;SDS011;7477;45.222;5.688;2022-12-18T00:46:28;17.70;;;10.93;;
14770;SDS011;7477;45.222;5.688;2022-12-18T00:49:48;15.30;;;10.10;;
14770;SDS011;7477;45.222;5.688;2022-12-18T00:53:07;17.23;;;11.17;;
14770;SDS011;7477;45.222;5.688;2022-12-18T00:56:27;17.67;;;10.50;;
14770;SDS011;7477;45.222;5.688;2022-12-18T00:59:47;17.10;;;10.40;;
14770;SDS011;7477;45.222;5.688;2022-12-18T01:03:07;14.63;;;10.20;;
14770;SDS011;7477;45.222;5.688;2022-12-18T01:06:26;15.30;;;9.97;;
14770;SDS011;7477;45.222;5.688;2022-12-18T01:09:45;16.20;;;10.97;;
14770;SDS011;7477;45.222;5.688;2022-12-18T01:13:05;13.47;;;8.97;;
14770;SDS011;7477;45.222;5.688;2022-12-18T01:16:24;14.37;;;9.53;;
14770;SDS011;7477;45.222;5.688;2022-12-18T01:19:43;12.67;;;8.53;;
14770;SDS011;7477;45.222;5.688;2022-12-18T01:23:02;13.57;;;9.00;;
14770;SDS011;7477;45.222;5.688;2022-12-18T01:26:22;16.03;;;9.60;;
14770;SDS011;7477;45.222;5.688;2022-12-18T01:29:42;14.00;;;9.90;;
14770;SDS011;7477;45.222;5.688;2022-12-18T01:33:02;14.97;;;9.67;;
14770;SDS011;7477;45.222;5.688;2022-12-18T01:36:24;14.43;;;8.77;;
14770;SDS011;7477;45.222;5.688;2022-12-18T01:39:45;10.73;;;7.57;;
14770;SDS011;7477;45.222;5.688;2022-12-18T01:43:04;12.03;;;8.03;;
14770;SDS011;7477;45.222;5.688;2022-12-18T01:46:24;11.90;;;7.87;;
14770;SDS011;7477;45.222;5.688;2022-12-18T01:49:45;12.60;;;7.50;;
14770;SDS011;7477;45.222;5.688;2022-12-18T01:56:35;12.27;;;7.70;;
14770;SDS011;7477;45.222;5.688;2022-12-18T01:59:57;12.03;;;8.17;;
14770;SDS011;7477;45.222;5.688;2022-12-18T02:03:20;11.17;;;7.40;;
14770;SDS011;7477;45.222;5.688;2022-12-18T02:06:40;10.73;;;7.20;;
14770;SDS011;7477;45.222;5.688;2022-12-18T02:10:03;12.43;;;7.63;;
14770;SDS011;7477;45.222;5.688;2022-12-18T02:13:36;12.03;;;7.30;;
14770;SDS011;7477;45.222;5.688;2022-12-18T02:20:39;11.33;;;7.37;;
14770;SDS011;7477;45.222;5.688;2022-12-18T02:28:00;10.20;;;6.77;;
14770;SDS011;7477;45.222;5.688;2022-12-18T02:31:27;9.77;;;6.97;;
14770;SDS011;7477;45.222;5.688;2022-12-18T02:34:49;9.77;;;7.17;;
14770;SDS011;7477;45.222;5.688;2022-12-18T02:38:10;13.10;;;8.03;;
14770;SDS011;7477;45.222;5.688;2022-12-18T02:41:32;11.77;;;7.40;;
14770;SDS011;7477;45.222;5.688;2022-12-18T02:44:52;10.37;;;7.47;;
14770;SDS011;7477;45.222;5.688;2022-12-18T02:48:13;12.97;;;7.20;;
14770;SDS011;7477;45.222;5.688;2022-12-18T02:51:35;11.70;;;8.23;;
14770;SDS011;7477;45.222;5.688;2022-12-18T02:55:38;9.70;;;6.93;;
14770;SDS011;7477;45.222;5.688;2022-12-18T02:59:14;11.60;;;8.13;;
14770;SDS011;7477;45.222;5.688;2022-12-18T03:02:55;13.10;;;8.37;;
14770;SDS011;7477;45.222;5.688;2022-12-18T03:06:26;13.83;;;8.37;;
14770;SDS011;7477;45.222;5.688;2022-12-18T03:09:58;16.73;;;9.07;;
14770;SDS011;7477;45.222;5.688;2022-12-18T03:13:21;16.00;;;9.13;;
14770;SDS011;7477;45.222;5.688;2022-12-18T03:16:47;11.63;;;8.13;;
14770;SDS011;7477;45.222;5.688;2022-12-18T03:20:16;14.27;;;9.57;;
14770;SDS011;7477;45.222;5.688;2022-12-18T03:23:42;13.37;;;10.23;;
14770;SDS011;7477;45.222;5.688;2022-12-18T03:27:06;12.17;;;9.37;;
14770;SDS011;7477;45.222;5.688;2022-12-18T03:30:31;13.30;;;8.30;;
14770;SDS011;7477;45.222;5.688;2022-12-18T03:33:55;13.83;;;8.50;;
14770;SDS011;7477;45.222;5.688;2022-12-18T03:37:23;12.27;;;8.07;;
14770;SDS011;7477;45.222;5.688;2022-12-18T03:52:01;13.17;;;7.23;;
14770;SDS011;7477;45.222;5.688;2022-12-18T03:55:06;9.13;;;6.70;;
14770;SDS011;7477;45.222;5.688;2022-12-18T03:58:27;11.83;;;7.30;;
14770;SDS011;7477;45.222;5.688;2022-12-18T04:01:49;12.97;;;7.60;;
14770;SDS011;7477;45.222;5.688;2022-12-18T04:05:11;10.67;;;7.47;;
14770;SDS011;7477;45.222;5.688;2022-12-18T04:08:31;12.97;;;7.93;;
14770;SDS011;7477;45.222;5.688;2022-12-18T04:11:53;16.10;;;8.80;;
14770;SDS011;7477;45.222;5.688;2022-12-18T04:15:12;13.87;;;7.77;;
14770;SDS011;7477;45.222;5.688;2022-12-18T04:18:32;10.50;;;7.67;;
14770;SDS011;7477;45.222;5.688;2022-12-18T04:21:51;14.77;;;8.83;;
14770;SDS011;7477;45.222;5.688;2022-12-18T04:25:11;11.73;;;7.40;;
14770;SDS011;7477;45.222;5.688;2022-12-18T04:28:30;14.83;;;8.13;;
14770;SDS011;7477;45.222;5.688;2022-12-18T04:31:49;12.67;;;7.40;;
14770;SDS011;7477;45.222;5.688;2022-12-18T04:35:08;12.10;;;7.70;;
14770;SDS011;7477;45.222;5.688;2022-12-18T04:38:29;9.97;;;7.00;;
14770;SDS011;7477;45.222;5.688;2022-12-18T04:41:48;12.50;;;7.60;;
14770;SDS011;7477;45.222;5.688;2022-12-18T04:45:07;11.13;;;6.77;;
14770;SDS011;7477;45.222;5.688;2022-12-18T04:48:27;12.03;;;7.03;;
14770;SDS011;7477;45.222;5.688;2022-12-18T04:51:46;10.90;;;7.33;;
14770;SDS011;7477;45.222;5.688;2022-12-18T04:55:05;8.10;;;6.50;;
14770;SDS011;7477;45.222;5.688;2022-12-18T04:58:24;9.93;;;6.37;;
14770;SDS011;7477;45.222;5.688;2022-12-18T05:01:43;10.73;;;6.53;;
14770;SDS011;7477;45.222;5.688;2022-12-18T05:05:04;9.80;;;6.63;;
14770;SDS011;7477;45.222;5.688;2022-12-18T05:08:24;10.13;;;6.17;;
14770;SDS011;7477;45.222;5.688;2022-12-18T05:11:44;9.03;;;6.20;;
14770;SDS011;7477;45.222;5.688;2022-12-18T05:15:03;8.07;;;5.63;;
14770;SDS011;7477;45.222;5.688;2022-12-18T05:18:23;7.27;;;5.30;;
14770;SDS011;7477;45.222;5.688;2022-12-18T05:21:43;7.50;;;5.07;;
14770;SDS011;7477;45.222;5.688;2022-12-18T05:25:02;10.63;;;6.73;;
14770;SDS011;7477;45.222;5.688;2022-12-18T05:28:23;9.80;;;6.37;;
14770;SDS011;7477;45.222;5.688;2022-12-18T05:31:44;9.93;;;6.30;;
14770;SDS011;7477;45.222;5.688;2022-12-18T05:35:03;12.37;;;7.93;;
14770;SDS011;7477;45.222;5.688;2022-12-18T05:38:24;10.20;;;7.60;;
14770;SDS011;7477;45.222;5.688;2022-12-18T05:41:45;13.47;;;8.40;;
14770;SDS011;7477;45.222;5.688;2022-12-18T05:45:04;13.83;;;7.67;;
14770;SDS011;7477;45.222;5.688;2022-12-18T05:48:24;10.60;;;7.00;;
14770;SDS011;7477;45.222;5.688;2022-12-18T05:51:43;10.10;;;6.73;;
14770;SDS011;7477;45.222;5.688;2022-12-18T05:55:03;9.40;;;6.13;;
14770;SDS011;7477;45.222;5.688;2022-12-18T05:58:23;8.20;;;5.90;;
14770;SDS011;7477;45.222;5.688;2022-12-18T06:01:42;7.07;;;5.60;;
14770;SDS011;7477;45.222;5.688;2022-12-18T06:05:01;8.63;;;6.00;;
14770;SDS011;7477;45.222;5.688;2022-12-18T06:08:21;10.17;;;6.83;;
14770;SDS011;7477;45.222;5.688;2022-12-18T06:11:40;9.90;;;6.40;;
14770;SDS011;7477;45.222;5.688;2022-12-18T06:15:00;10.37;;;7.13;;
14770;SDS011;7477;45.222;5.688;2022-12-18T06:18:20;9.83;;;6.60;;
14770;SDS011;7477;45.222;5.688;2022-12-18T06:21:39;10.37;;;6.93;;
14770;SDS011;7477;45.222;5.688;2022-12-18T06:24:59;10.33;;;6.73;;
14770;SDS011;7477;45.222;5.688;2022-12-18T06:28:19;10.57;;;7.00;;
14770;SDS011;7477;45.222;5.688;2022-12-18T06:31:38;15.40;;;8.53;;
14770;SDS011;7477;45.222;5.688;2022-12-18T06:34:57;13.43;;;7.80;;
14770;SDS011;7477;45.222;5.688;2022-12-18T06:38:16;13.87;;;7.93;;
14770;SDS011;7477;45.222;5.688;2022-12-18T06:41:35;13.53;;;8.43;;
14770;SDS011;7477;45.222;5.688;2022-12-18T06:44:55;15.43;;;9.17;;
14770;SDS011;7477;45.222;5.688;2022-12-18T06:48:14;15.70;;;10.20;;
14770;SDS011;7477;45.222;5.688;2022-12-18T06:51:33;16.67;;;10.00;;
14770;SDS011;7477;45.222;5.688;2022-12-18T06:54:52;16.53;;;9.27;;
14770;SDS011;7477;45.222;5.688;2022-12-18T06:58:12;16.10;;;10.23;;
14770;SDS011;7477;45.222;5.688;2022-12-18T07:01:31;20.67;;;10.73;;
14770;SDS011;7477;45.222;5.688;2022-12-18T07:04:50;15.07;;;10.60;;
14770;SDS011;7477;45.222;5.688;2022-12-18T07:08:09;16.70;;;9.77;;
14770;SDS011;7477;45.222;5.688;2022-12-18T07:11:28;17.97;;;10.63;;
14770;SDS011;7477;45.222;5.688;2022-12-18T07:14:47;19.53;;;11.93;;
14770;SDS011;7477;45.222;5.688;2022-12-18T07:18:07;19.63;;;11.77;;
14770;SDS011;7477;45.222;5.688;2022-12-18T07:21:26;19.00;;;10.93;;
14770;SDS011;7477;45.222;5.688;2022-12-18T07:24:45;18.53;;;11.40;;
14770;SDS011;7477;45.222;5.688;2022-12-18T07:28:04;16.50;;;9.67;;
14770;SDS011;7477;45.222;5.688;2022-12-18T07:31:23;14.37;;;9.37;;
14770;SDS011;7477;45.222;5.688;2022-12-18T07:34:43;17.73;;;10.87;;
14770;SDS011;7477;45.222;5.688;2022-12-18T07:38:02;16.37;;;8.97;;
14770;SDS011;7477;45.222;5.688;2022-12-18T07:41:21;19.80;;;10.47;;
14770;SDS011;7477;45.222;5.688;2022-12-18T07:44:41;15.90;;;9.50;;
14770;SDS011;7477;45.222;5.688;2022-12-18T07:48:01;18.20;;;9.73;;
14770;SDS011;7477;45.222;5.688;2022-12-18T07:51:20;14.50;;;9.37;;
14770;SDS011;7477;45.222;5.688;2022-12-18T07:54:39;13.13;;;8.67;;
14770;SDS011;7477;45.222;5.688;2022-12-18T07:58:02;13.50;;;8.33;;
14770;SDS011;7477;45.222;5.688;2022-12-18T08:01:23;12.63;;;8.07;;
14770;SDS011;7477;45.222;5.688;2022-12-18T08:04:42;15.07;;;8.70;;
14770;SDS011;7477;45.222;5.688;2022-12-18T08:08:01;14.40;;;8.87;;
14770;SDS011;7477;45.222;5.688;2022-12-18T08:11:21;14.83;;;9.47;;
14770;SDS011;7477;45.222;5.688;2022-12-18T08:14:42;16.40;;;9.53;;
14770;SDS011;7477;45.222;5.688;2022-12-18T08:18:01;15.93;;;9.20;;
14770;SDS011;7477;45.222;5.688;2022-12-18T08:21:23;13.80;;;8.93;;
14770;SDS011;7477;45.222;5.688;2022-12-18T08:24:45;11.47;;;8.60;;
14770;SDS011;7477;45.222;5.688;2022-12-18T08:28:04;15.40;;;9.57;;
14770;SDS011;7477;45.222;5.688;2022-12-18T08:31:23;12.90;;;8.63;;
14770;SDS011;7477;45.222;5.688;2022-12-18T08:34:43;16.20;;;9.30;;
14770;SDS011;7477;45.222;5.688;2022-12-18T08:38:02;12.80;;;8.20;;
14770;SDS011;7477;45.222;5.688;2022-12-18T08:41:22;13.63;;;8.10;;
14770;SDS011;7477;45.222;5.688;2022-12-18T08:44:42;14.83;;;9.33;;
14770;SDS011;7477;45.222;5.688;2022-12-18T08:48:01;16.53;;;10.20;;
14770;SDS011;7477;45.222;5.688;2022-12-18T08:51:21;13.37;;;9.07;;
14770;SDS011;7477;45.222;5.688;2022-12-18T08:54:41;13.50;;;8.60;;
14770;SDS011;7477;45.222;5.688;2022-12-18T08:57:59;11.80;;;7.60;;
14770;SDS011;7477;45.222;5.688;2022-12-18T09:01:19;13.87;;;9.63;;
14770;SDS011;7477;45.222;5.688;2022-12-18T09:04:38;13.13;;;8.70;;
14770;SDS011;7477;45.222;5.688;2022-12-18T09:07:58;11.63;;;7.77;;
14770;SDS011;7477;45.222;5.688;2022-12-18T09:11:21;14.80;;;8.67;;
14770;SDS011;7477;45.222;5.688;2022-12-18T09:14:43;14.77;;;8.67;;
14770;SDS011;7477;45.222;5.688;2022-12-18T09:18:02;12.87;;;8.13;;
14770;SDS011;7477;45.222;5.688;2022-12-18T09:21:21;14.50;;;8.80;;
14770;SDS011;7477;45.222;5.688;2022-12-18T09:24:40;15.97;;;9.10;;
14770;SDS011;7477;45.222;5.688;2022-12-18T09:27:59;16.50;;;9.00;;
14770;SDS011;7477;45.222;5.688;2022-12-18T09:31:20;14.97;;;9.80;;
14770;SDS011;7477;45.222;5.688;2022-12-18T09:34:40;15.20;;;9.27;;
14770;SDS011;7477;45.222;5.688;2022-12-18T09:38:00;16.17;;;10.00;;
14770;SDS011;7477;45.222;5.688;2022-12-18T09:44:53;12.57;;;7.00;;
14770;SDS011;7477;45.222;5.688;2022-12-18T09:48:15;11.17;;;7.37;;
14770;SDS011;7477;45.222;5.688;2022-12-18T09:51:43;16.70;;;9.27;;
14770;SDS011;7477;45.222;5.688;2022-12-18T09:55:16;16.07;;;10.03;;
14770;SDS011;7477;45.222;5.688;2022-12-18T09:58:47;15.10;;;9.67;;
14770;SDS011;7477;45.222;5.688;2022-12-18T10:02:16;16.23;;;9.80;;
14770;SDS011;7477;45.222;5.688;2022-12-18T10:09:22;16.30;;;9.83;;
14770;SDS011;7477;45.222;5.688;2022-12-18T10:16:32;14.68;;;9.13;;
14770;SDS011;7477;45.222;5.688;2022-12-18T10:21:00;12.80;;;9.30;;
14770;SDS011;7477;45.222;5.688;2022-12-18T10:27:19;13.98;;;9.52;;
14770;SDS011;7477;45.222;5.688;2022-12-18T10:30:43;15.45;;;10.07;;
14770;SDS011;7477;45.222;5.688;2022-12-18T10:34:02;16.45;;;9.98;;
14770;SDS011;7477;45.222;5.688;2022-12-18T10:37:23;22.17;;;10.80;;
14770;SDS011;7477;45.222;5.688;2022-12-18T10:44:21;16.98;;;9.73;;
14770;SDS011;7477;45.222;5.688;2022-12-18T10:47:42;41.90;;;18.35;;
14770;SDS011;7477;45.222;5.688;2022-12-18T10:51:04;14.73;;;10.60;;
14770;SDS011;7477;45.222;5.688;2022-12-18T10:54:25;15.43;;;9.65;;
14770;SDS011;7477;45.222;5.688;2022-12-18T10:57:45;16.57;;;10.50;;
14770;SDS011;7477;45.222;5.688;2022-12-18T11:01:15;19.97;;;11.07;;
14770;SDS011;7477;45.222;5.688;2022-12-18T11:04:40;15.38;;;9.88;;
14770;SDS011;7477;45.222;5.688;2022-12-18T11:08:12;17.55;;;11.02;;
14770;SDS011;7477;45.222;5.688;2022-12-18T11:11:41;18.08;;;11.45;;
14770;SDS011;7477;45.222;5.688;2022-12-18T11:15:13;17.37;;;10.90;;
14770;SDS011;7477;45.222;5.688;2022-12-18T11:18:47;15.60;;;9.90;;
14770;SDS011;7477;45.222;5.688;2022-12-18T11:22:25;17.53;;;10.93;;
14770;SDS011;7477;45.222;5.688;2022-12-18T11:25:57;15.40;;;10.00;;
14770;SDS011;7477;45.222;5.688;2022-12-18T11:29:30;15.15;;;8.75;;
14770;SDS011;7477;45.222;5.688;2022-12-18T11:36:42;15.90;;;9.23;;
14770;SDS011;7477;45.222;5.688;2022-12-18T11:40:09;13.73;;;8.30;;
14770;SDS011;7477;45.222;5.688;2022-12-18T11:43:44;16.45;;;8.20;;
14770;SDS011;7477;45.222;5.688;2022-12-18T11:47:15;10.80;;;7.38;;
14770;SDS011;7477;45.222;5.688;2022-12-18T11:50:52;13.27;;;6.90;;
14770;SDS011;7477;45.222;5.688;2022-12-18T11:54:16;11.07;;;5.90;;
14770;SDS011;7477;45.222;5.688;2022-12-18T11:57:38;10.10;;;5.72;;
14770;SDS011;7477;45.222;5.688;2022-12-18T12:09:00;9.05;;;5.43;;
14770;SDS011;7477;45.222;5.688;2022-12-18T12:16:20;8.55;;;6.13;;
14770;SDS011;7477;45.222;5.688;2022-12-18T12:41:44;16.25;;;10.07;;
14770;SDS011;7477;45.222;5.688;2022-12-18T12:45:44;13.20;;;9.13;;
14770;SDS011;7477;45.222;5.688;2022-12-18T12:49:12;13.65;;;9.18;;
14770;SDS011;7477;45.222;5.688;2022-12-18T12:52:35;14.35;;;9.52;;
14770;SDS011;7477;45.222;5.688;2022-12-18T12:56:03;12.65;;;9.27;;
14770;SDS011;7477;45.222;5.688;2022-12-18T13:20:40;31.88;;;17.80;;
14770;SDS011;7477;45.222;5.688;2022-12-18T13:24:15;14.07;;;9.23;;
14770;SDS011;7477;45.222;5.688;2022-12-18T13:31:04;13.95;;;9.15;;
14770;SDS011;7477;45.222;5.688;2022-12-18T13:37:51;14.52;;;9.27;;
14770;SDS011;7477;45.222;5.688;2022-12-18T13:44:38;15.60;;;7.63;;
14770;SDS011;7477;45.222;5.688;2022-12-18T13:47:58;13.75;;;8.23;;
14770;SDS011;7477;45.222;5.688;2022-12-18T13:51:18;16.40;;;7.90;;
14770;SDS011;7477;45.222;5.688;2022-12-18T13:54:39;11.60;;;7.93;;
14770;SDS011;7477;45.222;5.688;2022-12-18T13:58:03;14.98;;;8.57;;
14770;SDS011;7477;45.222;5.688;2022-12-18T14:01:23;14.52;;;8.57;;
14770;SDS011;7477;45.222;5.688;2022-12-18T14:04:46;14.18;;;7.78;;
14770;SDS011;7477;45.222;5.688;2022-12-18T14:08:11;11.48;;;7.68;;
14770;SDS011;7477;45.222;5.688;2022-12-18T14:11:33;12.57;;;8.02;;
14770;SDS011;7477;45.222;5.688;2022-12-18T14:14:54;13.32;;;8.25;;
14770;SDS011;7477;45.222;5.688;2022-12-18T14:18:19;12.23;;;8.25;;
14770;SDS011;7477;45.222;5.688;2022-12-18T14:21:39;10.70;;;7.35;;
14770;SDS011;7477;45.222;5.688;2022-12-18T14:25:32;13.40;;;7.85;;
14770;SDS011;7477;45.222;5.688;2022-12-18T14:28:46;10.70;;;6.90;;
14770;SDS011;7477;45.222;5.688;2022-12-18T14:35:36;8.73;;;6.70;;
14770;SDS011;7477;45.222;5.688;2022-12-18T14:38:58;11.43;;;7.82;;
14770;SDS011;7477;45.222;5.688;2022-12-18T14:42:18;12.18;;;7.40;;
14770;SDS011;7477;45.222;5.688;2022-12-18T14:45:37;10.70;;;7.70;;
14770;SDS011;7477;45.222;5.688;2022-12-18T14:49:14;11.82;;;7.28;;
14770;SDS011;7477;45.222;5.688;2022-12-18T14:52:40;9.90;;;6.20;;
14770;SDS011;7477;45.222;5.688;2022-12-18T14:55:59;10.23;;;6.75;;
14770;SDS011;7477;45.222;5.688;2022-12-18T14:59:20;11.57;;;7.45;;
14770;SDS011;7477;45.222;5.688;2022-12-18T15:02:41;10.25;;;6.68;;
14770;SDS011;7477;45.222;5.688;2022-12-18T15:06:15;10.80;;;6.53;;
14770;SDS011;7477;45.222;5.688;2022-12-18T15:09:36;11.77;;;6.67;;
14770;SDS011;7477;45.222;5.688;2022-12-18T15:16:18;10.00;;;6.28;;
14770;SDS011;7477;45.222;5.688;2022-12-18T15:19:38;11.70;;;6.72;;
14770;SDS011;7477;45.222;5.688;2022-12-18T15:22:59;8.87;;;6.20;;
14770;SDS011;7477;45.222;5.688;2022-12-18T15:26:20;9.07;;;6.40;;
14770;SDS011;7477;45.222;5.688;2022-12-18T15:29:40;12.83;;;7.50;;
14770;SDS011;7477;45.222;5.688;2022-12-18T15:36:43;14.80;;;8.30;;
14770;SDS011;7477;45.222;5.688;2022-12-18T15:40:03;15.95;;;9.07;;
14770;SDS011;7477;45.222;5.688;2022-12-18T15:43:24;13.48;;;7.95;;
14770;SDS011;7477;45.222;5.688;2022-12-18T15:46:54;13.32;;;8.00;;
14770;SDS011;7477;45.222;5.688;2022-12-18T15:50:13;14.45;;;8.18;;
14770;SDS011;7477;45.222;5.688;2022-12-18T15:53:32;18.10;;;9.38;;
14770;SDS011;7477;45.222;5.688;2022-12-18T15:56:52;16.45;;;10.02;;
14770;SDS011;7477;45.222;5.688;2022-12-18T16:00:31;17.83;;;10.10;;
14770;SDS011;7477;45.222;5.688;2022-12-18T16:03:52;18.40;;;9.47;;
14770;SDS011;7477;45.222;5.688;2022-12-18T16:07:12;12.37;;;8.27;;
14770;SDS011;7477;45.222;5.688;2022-12-18T16:10:32;13.27;;;7.37;;
14770;SDS011;7477;45.222;5.688;2022-12-18T16:13:51;13.03;;;7.37;;
14770;SDS011;7477;45.222;5.688;2022-12-18T16:17:10;12.10;;;8.53;;
14770;SDS011;7477;45.222;5.688;2022-12-18T16:20:31;13.93;;;8.03;;
14770;SDS011;7477;45.222;5.688;2022-12-18T16:23:50;11.70;;;7.30;;
14770;SDS011;7477;45.222;5.688;2022-12-18T16:27:09;12.33;;;7.10;;
14770;SDS011;7477;45.222;5.688;2022-12-18T16:30:30;12.40;;;7.57;;
14770;SDS011;7477;45.222;5.688;2022-12-18T16:33:49;14.67;;;8.73;;
14770;SDS011;7477;45.222;5.688;2022-12-18T16:37:29;16.67;;;9.57;;
14770;SDS011;7477;45.222;5.688;2022-12-18T16:40:48;16.90;;;10.17;;
14770;SDS011;7477;45.222;5.688;2022-12-18T16:44:26;30.40;;;14.98;;
14770;SDS011;7477;45.222;5.688;2022-12-18T16:47:46;22.17;;;14.60;;
14770;SDS011;7477;45.222;5.688;2022-12-18T16:51:05;26.63;;;14.30;;
14770;SDS011;7477;45.222;5.688;2022-12-18T16:54:25;29.33;;;16.67;;
14770;SDS011;7477;45.222;5.688;2022-12-18T16:57:48;22.00;;;13.33;;
14770;SDS011;7477;45.222;5.688;2022-12-18T17:01:07;18.83;;;12.30;;
14770;SDS011;7477;45.222;5.688;2022-12-18T17:04:28;18.30;;;12.13;;
14770;SDS011;7477;45.222;5.688;2022-12-18T17:07:48;20.70;;;11.60;;
14770;SDS011;7477;45.222;5.688;2022-12-18T17:11:07;17.93;;;10.23;;
14770;SDS011;7477;45.222;5.688;2022-12-18T17:14:27;17.70;;;11.30;;
14770;SDS011;7477;45.222;5.688;2022-12-18T17:17:46;19.77;;;11.90;;
14770;SDS011;7477;45.222;5.688;2022-12-18T17:21:06;20.67;;;12.70;;
14770;SDS011;7477;45.222;5.688;2022-12-18T17:24:28;19.17;;;11.60;;
14770;SDS011;7477;45.222;5.688;2022-12-18T17:27:49;25.17;;;15.03;;
14770;SDS011;7477;45.222;5.688;2022-12-18T17:31:16;24.07;;;13.67;;
14770;SDS011;7477;45.222;5.688;2022-12-18T17:34:37;21.27;;;12.83;;
14770;SDS011;7477;45.222;5.688;2022-12-18T17:37:56;21.80;;;13.10;;
14770;SDS011;7477;45.222;5.688;2022-12-18T17:41:15;23.20;;;14.17;;
14770;SDS011;7477;45.222;5.688;2022-12-18T17:44:35;23.50;;;15.23;;
14770;SDS011;7477;45.222;5.688;2022-12-18T17:47:54;26.30;;;16.37;;
14770;SDS011;7477;45.222;5.688;2022-12-18T17:51:14;23.97;;;15.90;;
14770;SDS011;7477;45.222;5.688;2022-12-18T17:54:34;25.70;;;14.70;;
14770;SDS011;7477;45.222;5.688;2022-12-18T17:57:57;27.20;;;15.23;;
14770;SDS011;7477;45.222;5.688;2022-12-18T18:01:18;20.83;;;14.00;;
14770;SDS011;7477;45.222;5.688;2022-12-18T18:04:39;20.27;;;11.67;;
14770;SDS011;7477;45.222;5.688;2022-12-18T18:07:58;21.77;;;13.00;;
14770;SDS011;7477;45.222;5.688;2022-12-18T18:11:19;19.73;;;13.07;;
14770;SDS011;7477;45.222;5.688;2022-12-18T18:14:58;21.57;;;12.93;;
14770;SDS011;7477;45.222;5.688;2022-12-18T18:18:17;16.10;;;9.85;;
14770;SDS011;7477;45.222;5.688;2022-12-18T18:21:37;18.30;;;11.43;;
14770;SDS011;7477;45.222;5.688;2022-12-18T18:24:58;23.87;;;12.87;;
14770;SDS011;7477;45.222;5.688;2022-12-18T18:28:18;19.80;;;11.50;;
14770;SDS011;7477;45.222;5.688;2022-12-18T18:31:38;17.30;;;10.37;;
14770;SDS011;7477;45.222;5.688;2022-12-18T18:34:57;16.17;;;10.77;;
14770;SDS011;7477;45.222;5.688;2022-12-18T18:38:16;17.43;;;11.17;;
14770;SDS011;7477;45.222;5.688;2022-12-18T18:41:36;17.63;;;10.40;;
14770;SDS011;7477;45.222;5.688;2022-12-18T18:44:55;15.73;;;10.03;;
14770;SDS011;7477;45.222;5.688;2022-12-18T18:48:14;33.60;;;17.77;;
14770;SDS011;7477;45.222;5.688;2022-12-18T18:51:33;24.77;;;12.93;;
14770;SDS011;7477;45.222;5.688;2022-12-18T18:54:53;33.83;;;15.90;;
14770;SDS011;7477;45.222;5.688;2022-12-18T18:58:12;45.67;;;24.20;;
14770;SDS011;7477;45.222;5.688;2022-12-18T19:01:32;38.57;;;21.50;;
14770;SDS011;7477;45.222;5.688;2022-12-18T19:04:51;51.15;;;23.45;;
14770;SDS011;7477;45.222;5.688;2022-12-18T19:08:10;26.83;;;16.17;;
14770;SDS011;7477;45.222;5.688;2022-12-18T19:11:30;30.30;;;16.40;;
14770;SDS011;7477;45.222;5.688;2022-12-18T19:15:09;30.55;;;15.82;;
14770;SDS011;7477;45.222;5.688;2022-12-18T19:18:28;31.30;;;16.20;;
14770;SDS011;7477;45.222;5.688;2022-12-18T19:21:47;20.30;;;12.80;;
14770;SDS011;7477;45.222;5.688;2022-12-18T19:25:07;22.10;;;13.93;;
14770;SDS011;7477;45.222;5.688;2022-12-18T19:28:26;23.47;;;12.87;;
14770;SDS011;7477;45.222;5.688;2022-12-18T19:31:46;32.08;;;16.35;;
14770;SDS011;7477;45.222;5.688;2022-12-18T19:35:05;85.20;;;26.73;;
14770;SDS011;7477;45.222;5.688;2022-12-18T19:38:25;29.00;;;14.45;;
14770;SDS011;7477;45.222;5.688;2022-12-18T19:41:45;17.30;;;11.20;;
14770;SDS011;7477;45.222;5.688;2022-12-18T19:45:06;66.25;;;22.65;;
14770;SDS011;7477;45.222;5.688;2022-12-18T19:48:25;21.00;;;12.57;;
14770;SDS011;7477;45.222;5.688;2022-12-18T19:51:45;26.10;;;14.40;;
14770;SDS011;7477;45.222;5.688;2022-12-18T19:55:04;44.88;;;20.45;;
14770;SDS011;7477;45.222;5.688;2022-12-18T19:58:24;40.63;;;19.73;;
14770;SDS011;7477;45.222;5.688;2022-12-18T20:01:43;77.90;;;35.80;;
14770;SDS011;7477;45.222;5.688;2022-12-18T20:05:08;26.25;;;15.48;;
14770;SDS011;7477;45.222;5.688;2022-12-18T20:08:29;36.42;;;21.98;;
14770;SDS011;7477;45.222;5.688;2022-12-18T20:11:48;21.83;;;13.20;;
14770;SDS011;7477;45.222;5.688;2022-12-18T20:15:08;25.03;;;14.63;;
14770;SDS011;7477;45.222;5.688;2022-12-18T20:18:28;27.27;;;14.53;;
14770;SDS011;7477;45.222;5.688;2022-12-18T20:21:47;28.02;;;15.38;;
14770;SDS011;7477;45.222;5.688;2022-12-18T20:25:06;36.53;;;17.65;;
14770;SDS011;7477;45.222;5.688;2022-12-18T20:28:28;17.37;;;11.60;;
14770;SDS011;7477;45.222;5.688;2022-12-18T20:31:47;16.63;;;10.53;;
14770;SDS011;7477;45.222;5.688;2022-12-18T20:35:07;20.08;;;11.93;;
14770;SDS011;7477;45.222;5.688;2022-12-18T20:38:26;24.38;;;11.40;;
14770;SDS011;7477;45.222;5.688;2022-12-18T20:41:47;17.48;;;10.27;;
14770;SDS011;7477;45.222;5.688;2022-12-18T20:45:08;15.85;;;9.55;;
14770;SDS011;7477;45.222;5.688;2022-12-18T20:48:27;15.63;;;9.07;;
14770;SDS011;7477;45.222;5.688;2022-12-18T20:51:54;13.40;;;10.13;;
14770;SDS011;7477;45.222;5.688;2022-12-18T20:55:14;12.15;;;8.60;;
14770;SDS011;7477;45.222;5.688;2022-12-18T20:58:34;89.20;;;38.05;;
14770;SDS011;7477;45.222;5.688;2022-12-18T21:01:54;18.80;;;11.60;;
14770;SDS011;7477;45.222;5.688;2022-12-18T21:05:14;17.05;;;11.13;;
14770;SDS011;7477;45.222;5.688;2022-12-18T21:08:33;14.20;;;9.35;;
14770;SDS011;7477;45.222;5.688;2022-12-18T21:11:52;16.40;;;10.50;;
14770;SDS011;7477;45.222;5.688;2022-12-18T21:15:31;15.75;;;9.63;;
14770;SDS011;7477;45.222;5.688;2022-12-18T21:18:50;17.35;;;10.63;;
14770;SDS011;7477;45.222;5.688;2022-12-18T21:22:09;16.58;;;10.02;;
14770;SDS011;7477;45.222;5.688;2022-12-18T21:25:28;15.80;;;9.50;;
14770;SDS011;7477;45.222;5.688;2022-12-18T21:28:52;17.77;;;10.48;;
14770;SDS011;7477;45.222;5.688;2022-12-18T21:32:15;16.75;;;9.82;;
14770;SDS011;7477;45.222;5.688;2022-12-18T21:35:34;19.20;;;11.45;;
14770;SDS011;7477;45.222;5.688;2022-12-18T21:38:54;13.52;;;9.82;;
14770;SDS011;7477;45.222;5.688;2022-12-18T21:42:14;18.13;;;11.30;;
14770;SDS011;7477;45.222;5.688;2022-12-18T21:45:52;14.43;;;9.13;;
14770;SDS011;7477;45.222;5.688;2022-12-18T21:49:13;17.77;;;10.50;;
14770;SDS011;7477;45.222;5.688;2022-12-18T21:52:35;17.63;;;11.20;;
14770;SDS011;7477;45.222;5.688;2022-12-18T21:55:57;16.27;;;9.90;;
14770;SDS011;7477;45.222;5.688;2022-12-18T21:59:22;15.63;;;10.43;;
14770;SDS011;7477;45.222;5.688;2022-12-18T22:02:43;17.77;;;10.77;;
14770;SDS011;7477;45.222;5.688;2022-12-18T22:06:02;15.70;;;10.03;;
14770;SDS011;7477;45.222;5.688;2022-12-18T22:09:23;15.50;;;9.10;;
14770;SDS011;7477;45.222;5.688;2022-12-18T22:12:43;17.93;;;10.33;;